createdAt,value
2023-04-26T00:01:38.409Z,99492.81
2023-04-26T00:05:51.598Z,99472.06
2023-04-26T00:10:08.748Z,99448.03
2023-04-26T00:14:22.519Z,99460.72
2023-04-26T00:18:34.985Z,99486.47
2023-04-26T00:22:47.761Z,99468.72
2023-04-26T00:27:00.994Z,99451.91
2023-04-26T00:31:17.920Z,99400.16
2023-04-26T00:35:31.101Z,99402.25
2023-04-26T00:39:43.373Z,99400.16
2023-04-26T00:43:56.107Z,99400.63
2023-04-26T00:48:08.716Z,99411.09
2023-04-26T00:52:22.038Z,99395.63
2023-04-26T00:56:35.203Z,99400.75
2023-04-26T01:00:47.738Z,99390.25
2023-04-26T01:05:00.165Z,99403.56
2023-04-26T01:09:16.120Z,99417.53
2023-04-26T01:13:30.034Z,99420.34
2023-04-26T01:17:44.774Z,99397.72
2023-04-26T01:21:58.409Z,99395.03
2023-04-26T01:26:11.154Z,99406.31
2023-04-26T01:30:23.533Z,99400.53
2023-04-26T01:34:36.088Z,99395.72
2023-04-26T01:38:48.460Z,99390.47
2023-04-26T01:43:03.458Z,99382.13
2023-04-26T01:47:17.079Z,99388.69
2023-04-26T01:51:30.915Z,99402.22
2023-04-26T01:55:44.032Z,99419.41
2023-04-26T01:59:58.516Z,99415.03
2023-04-26T02:04:12.125Z,99417.28
2023-04-26T02:08:24.454Z,99417.50
2023-04-26T02:12:36.863Z,99418.03
2023-04-26T02:16:49.507Z,99410.47
2023-04-26T02:21:01.866Z,99426.44
2023-04-26T02:25:17.408Z,99427.75
2023-04-26T02:33:48.532Z,99435.47
2023-04-26T02:38:00.966Z,99438.09
2023-04-26T02:42:13.402Z,99427.31
2023-04-26T02:46:27.668Z,99430.97
2023-04-26T02:50:40.063Z,99447.97
2023-04-26T02:54:52.468Z,99453.47
2023-04-26T02:59:04.865Z,99459.69
2023-04-26T03:03:17.570Z,99467.06
2023-04-26T03:07:31.878Z,99473.78
2023-04-26T03:11:44.375Z,99468.59
2023-04-26T03:15:57.024Z,99464.06
2023-04-26T03:20:11.163Z,99464.59
2023-04-26T03:24:24.011Z,99471.13
2023-04-26T03:28:36.485Z,99482.72
2023-04-26T03:32:49.181Z,99487.53
2023-04-26T03:37:03.560Z,99485.75
2023-04-26T03:41:17.154Z,99493.00
2023-04-26T03:45:29.528Z,99493.94
2023-04-26T03:49:42.883Z,99492.91
2023-04-26T03:53:56.194Z,99503.22
2023-04-26T03:58:09.058Z,99508.53
2023-04-26T04:02:22.178Z,99511.19
2023-04-26T04:06:38.616Z,99512.84
2023-04-26T04:10:51.339Z,99517.31
2023-04-26T04:15:03.874Z,99524.22
2023-04-26T04:19:17.175Z,99521.50
2023-04-26T04:23:29.920Z,99534.72
2023-04-26T04:27:43.806Z,99543.44
2023-04-26T04:31:56.875Z,99539.78
2023-04-26T04:36:10.126Z,99545.84
2023-04-26T04:40:23.037Z,99549.94
2023-04-26T04:44:35.641Z,99560.59
2023-04-26T04:48:48.898Z,99562.16
2023-04-26T04:53:01.333Z,99557.41
2023-04-26T04:57:14.222Z,99571.53
2023-04-26T05:01:27.049Z,99564.59
2023-04-26T05:05:42.427Z,99567.16
2023-04-26T05:09:54.853Z,99575.38
2023-04-26T05:14:07.468Z,99574.16
2023-04-26T05:18:19.834Z,99585.69
2023-04-26T05:22:32.426Z,99597.06
2023-04-26T05:26:44.818Z,99600.28
2023-04-26T05:31:18.154Z,99591.22
2023-04-26T05:36:00.113Z,99592.91
2023-04-26T05:40:13.929Z,99591.94
2023-04-26T05:44:26.397Z,99586.19
2023-04-26T05:48:40.107Z,99582.75
2023-04-26T05:52:52.628Z,99597.75
2023-04-26T05:57:06.481Z,99607.00
2023-04-26T06:01:19.156Z,99619.59
2023-04-26T06:05:32.496Z,99621.38
2023-04-26T06:09:44.950Z,99623.38
2023-04-26T06:13:57.303Z,99629.38
2023-04-26T06:18:11.035Z,99619.84
2023-04-26T06:22:23.485Z,99622.03
2023-04-26T06:26:36.172Z,99634.22
2023-04-26T06:30:49.589Z,99628.75
2023-04-26T06:35:02.238Z,99636.00
2023-04-26T06:39:14.682Z,99637.34
2023-04-26T06:43:28.612Z,99628.94
2023-04-26T06:47:48.003Z,99634.66
2023-04-26T06:52:00.355Z,99642.47
2023-04-26T06:56:12.842Z,99636.72
2023-04-26T07:00:25.368Z,99632.38
2023-04-26T07:04:38.067Z,99631.44
2023-04-26T07:08:51.720Z,99641.09
2023-04-26T07:13:04.212Z,99640.19
2023-04-26T07:17:16.957Z,99634.22
2023-04-26T07:21:31.039Z,99638.66
2023-04-26T07:25:43.699Z,99640.47
2023-04-26T07:29:58.890Z,99654.09
2023-04-26T07:34:11.351Z,99646.94
2023-04-26T07:38:24.176Z,99633.81
2023-04-26T07:42:36.589Z,99629.63
2023-04-26T07:46:49.000Z,99620.19
2023-04-26T07:51:09.414Z,99627.13
2023-04-26T07:55:22.103Z,99633.28
2023-04-26T07:59:34.510Z,99632.13
2023-04-26T08:03:47.888Z,99631.25
2023-04-26T08:08:01.970Z,99623.63
2023-04-26T08:12:14.563Z,99624.13
2023-04-26T08:16:27.019Z,99630.69
2023-04-26T08:20:39.815Z,99633.84
2023-04-26T08:24:55.255Z,99635.66
2023-04-26T08:29:07.962Z,99649.53
2023-04-26T08:33:20.392Z,99651.34
2023-04-26T08:37:33.031Z,99655.59
2023-04-26T08:41:50.452Z,99662.31
2023-04-26T08:46:04.752Z,99670.16
2023-04-26T08:50:20.747Z,99648.16
2023-04-26T08:54:33.458Z,99656.19
2023-04-26T08:58:46.072Z,99662.25
2023-04-26T09:02:58.559Z,99651.94
2023-04-26T09:07:19.045Z,99663.81
2023-04-26T09:11:31.525Z,99663.03
2023-04-26T09:15:43.910Z,99669.31
2023-04-26T09:19:57.022Z,99673.75
2023-04-26T09:24:09.569Z,99664.22
2023-04-26T09:28:23.995Z,99666.94
2023-04-26T09:32:56.133Z,99673.94
2023-04-26T09:37:14.608Z,99672.75
2023-04-26T09:41:43.557Z,99665.88
2023-04-26T09:45:58.630Z,99674.59
2023-04-26T09:50:11.258Z,99673.31
2023-04-26T09:54:42.453Z,99673.16
2023-04-26T09:59:00.953Z,99674.25
2023-04-26T10:03:14.358Z,99684.19
2023-04-26T10:07:27.652Z,99685.13
2023-04-26T10:11:40.502Z,99685.09
2023-04-26T10:15:54.169Z,99683.41
2023-04-26T10:20:11.487Z,99679.50
2023-04-26T10:24:24.750Z,99681.34
2023-04-26T10:28:46.535Z,99691.63
2023-04-26T10:32:58.833Z,99680.22
2023-04-26T10:37:16.465Z,99679.84
2023-04-26T10:41:32.802Z,99685.81
2023-04-26T10:45:46.857Z,99675.00
2023-04-26T10:50:10.589Z,99677.75
2023-04-26T10:54:24.560Z,99677.72
2023-04-26T10:58:41.995Z,99684.84
2023-04-26T11:02:58.295Z,99667.06
2023-04-26T11:07:14.507Z,99676.97
2023-04-26T11:11:33.100Z,99673.75
2023-04-26T11:15:46.790Z,99671.69
2023-04-26T11:19:59.179Z,99674.66
2023-04-26T11:24:11.666Z,99677.97
2023-04-26T11:28:24.221Z,99678.78
2023-04-26T11:32:37.889Z,99684.69
2023-04-26T11:36:51.992Z,99678.09
2023-04-26T11:41:04.731Z,99669.69
2023-04-26T11:45:17.258Z,99673.16
2023-04-26T11:49:30.845Z,99679.06
2023-04-26T11:53:43.847Z,99674.97
2023-04-26T11:57:57.564Z,99666.88
2023-04-26T12:02:13.611Z,99664.63
2023-04-26T12:06:42.207Z,99667.19
2023-04-26T12:10:54.859Z,99668.72
2023-04-26T12:15:15.157Z,99673.41
2023-04-26T12:19:28.374Z,99680.25
2023-04-26T12:23:42.096Z,99680.63
2023-04-26T12:27:55.230Z,99687.25
2023-04-26T12:32:07.743Z,99687.63
2023-04-26T12:36:20.125Z,99705.34
2023-04-26T12:40:32.702Z,99696.66
2023-04-26T12:44:45.149Z,99700.50
2023-04-26T12:48:57.592Z,99692.84
2023-04-26T12:53:11.750Z,99703.13
2023-04-26T12:57:24.724Z,99704.22
2023-04-26T13:01:37.344Z,99706.50
2023-04-26T13:05:49.906Z,99712.56
2023-04-26T13:10:02.892Z,99702.94
2023-04-26T13:14:15.336Z,99701.22
2023-04-26T13:18:27.813Z,99718.50
2023-04-26T13:22:42.737Z,99715.25
2023-04-26T13:26:55.680Z,99713.69
2023-04-26T13:31:08.297Z,99703.81
2023-04-26T13:35:21.158Z,99718.63
2023-04-26T13:39:33.450Z,99725.31
2023-04-26T13:43:45.888Z,99724.84
2023-04-26T13:47:58.295Z,99724.00
2023-04-26T13:52:12.240Z,99728.84
2023-04-26T13:56:26.175Z,99737.00
2023-04-26T14:00:38.615Z,99734.66
2023-04-26T14:04:51.158Z,99731.88
2023-04-26T14:09:05.856Z,99740.16
2023-04-26T14:13:18.793Z,99742.41
2023-04-26T14:17:32.680Z,99747.13
2023-04-26T14:21:45.206Z,99752.50
2023-04-26T14:25:57.496Z,99755.03
2023-04-26T14:30:10.068Z,99759.34
2023-04-26T14:34:23.882Z,99759.47
2023-04-26T14:38:36.741Z,99766.19
2023-04-26T14:42:49.229Z,99782.09
2023-04-26T14:47:01.899Z,99788.69
2023-04-26T14:51:14.351Z,99789.56
2023-04-26T14:55:27.425Z,99798.09
2023-04-26T14:59:39.940Z,99791.88
2023-04-26T15:03:52.436Z,99810.31
2023-04-26T15:08:05.234Z,99820.78
2023-04-26T15:12:17.613Z,99815.69
2023-04-26T15:16:30.114Z,99821.81
2023-04-26T15:20:42.606Z,99853.81
2023-04-26T15:24:54.935Z,99838.94
2023-04-26T15:29:07.426Z,99835.50
2023-04-26T15:33:20.269Z,99838.03
2023-04-26T15:37:32.765Z,99843.81
2023-04-26T15:41:45.625Z,99843.81
2023-04-26T15:45:58.069Z,99847.75
2023-04-26T15:50:10.893Z,99841.88
2023-04-26T15:54:24.623Z,99852.66
2023-04-26T15:58:39.350Z,99866.03
2023-04-26T16:02:53.555Z,99872.56
2023-04-26T16:07:08.310Z,99878.44
2023-04-26T16:11:22.013Z,99884.91
2023-04-26T16:15:34.440Z,99889.56
2023-04-26T16:19:47.024Z,99890.53
2023-04-26T16:24:00.482Z,99903.56
2023-04-26T16:28:12.950Z,99909.38
2023-04-26T16:32:26.575Z,99915.06
2023-04-26T16:36:38.854Z,99911.06
2023-04-26T16:40:58.107Z,99909.25
2023-04-26T16:45:16.292Z,99920.25
2023-04-26T16:49:29.078Z,99925.66
2023-04-26T16:53:41.514Z,99937.38
2023-04-26T16:57:53.864Z,99940.25
2023-04-26T17:02:07.100Z,99934.88
2023-04-26T17:06:20.043Z,99931.81
2023-04-26T17:10:34.087Z,99938.81
2023-04-26T17:14:46.573Z,99939.78
2023-04-26T17:18:58.928Z,99947.81
2023-04-26T17:23:12.024Z,99939.34
2023-04-26T17:27:25.945Z,99951.91
2023-04-26T17:31:39.021Z,99945.78
2023-04-26T17:35:51.629Z,99948.94
2023-04-26T17:40:08.150Z,99952.75
2023-04-26T17:44:20.486Z,99959.78
2023-04-26T17:48:33.130Z,99963.50
2023-04-26T17:52:45.818Z,99962.28
2023-04-26T17:56:58.753Z,99962.47
2023-04-26T18:01:11.214Z,99968.69
2023-04-26T18:05:24.791Z,99975.19
2023-04-26T18:09:37.233Z,99987.81
2023-04-26T18:13:49.625Z,99988.63
2023-04-26T18:18:05.726Z,100002.91
2023-04-26T18:22:18.120Z,100012.19
2023-04-26T18:26:30.489Z,100016.94
2023-04-26T18:30:42.829Z,100017.25
2023-04-26T18:34:55.265Z,100025.88
2023-04-26T18:39:08.256Z,100024.38
2023-04-26T18:43:20.791Z,100031.22
2023-04-26T18:47:33.267Z,100041.47
2023-04-26T18:51:46.060Z,100046.53
2023-04-26T18:55:58.396Z,100045.63
2023-04-26T19:00:12.083Z,100056.75
2023-04-26T19:04:24.660Z,100064.78
2023-04-26T19:08:37.362Z,100064.97
2023-04-26T19:12:49.713Z,100066.00
2023-04-26T19:17:02.438Z,100084.78
2023-04-26T19:21:14.747Z,100086.69
2023-04-26T19:25:27.562Z,100088.41
2023-04-26T19:29:39.912Z,100088.41
2023-04-26T19:33:52.773Z,100094.69
2023-04-26T19:38:07.032Z,100094.78
2023-04-26T19:42:19.310Z,100093.88
2023-04-26T19:46:31.998Z,100100.22
2023-04-26T19:50:46.488Z,100095.66
2023-04-26T19:54:58.995Z,100103.81
2023-04-26T19:59:14.024Z,100098.56
2023-04-26T20:03:26.767Z,100099.63
2023-04-26T20:07:39.094Z,100104.56
2023-04-26T20:11:52.201Z,100109.13
2023-04-26T20:16:04.962Z,100105.59
2023-04-26T20:20:17.312Z,100108.22
2023-04-26T20:24:30.593Z,100111.63
2023-04-26T20:28:42.948Z,100114.53
2023-04-26T20:32:55.402Z,100114.88
2023-04-26T20:37:07.866Z,100116.72
2023-04-26T20:41:20.258Z,100123.94
2023-04-26T20:45:32.676Z,100116.81
2023-04-26T20:49:45.046Z,100112.34
2023-04-26T20:53:57.353Z,100115.22
2023-04-26T20:58:09.791Z,100125.91
2023-04-26T21:02:22.289Z,100114.38
2023-04-26T21:06:34.745Z,100116.72
2023-04-26T21:10:47.192Z,100130.16
2023-04-26T21:14:59.511Z,100127.38
2023-04-26T21:19:11.994Z,100132.81
2023-04-26T21:23:24.461Z,100130.50
2023-04-26T21:27:36.861Z,100134.25
2023-04-26T21:31:49.236Z,100136.94
2023-04-26T21:36:01.663Z,100155.50
2023-04-26T21:40:14.219Z,100150.78
2023-04-26T21:44:26.636Z,100148.81
2023-04-26T21:48:41.745Z,100150.41
2023-04-26T21:52:54.052Z,100149.00
2023-04-26T21:57:07.188Z,100167.78
2023-04-26T22:01:19.673Z,100170.75
2023-04-26T22:05:32.215Z,100168.59
2023-04-26T22:09:44.608Z,100168.81
2023-04-26T22:13:57.050Z,100168.97
2023-04-26T22:18:09.859Z,100180.56
2023-04-26T22:22:22.284Z,100178.06
2023-04-26T22:26:34.625Z,100177.09
2023-04-26T22:30:47.048Z,100167.81
2023-04-26T22:34:59.489Z,100163.38
2023-04-26T22:39:12.481Z,100169.91
2023-04-26T22:43:25.140Z,100179.78
2023-04-26T22:47:37.728Z,100176.84
2023-04-26T22:52:01.966Z,100187.69
2023-04-26T22:56:19.915Z,100186.03
2023-04-26T23:00:32.321Z,100179.81
2023-04-26T23:04:44.821Z,100177.16
2023-04-26T23:08:57.334Z,100180.00
2023-04-26T23:13:10.109Z,100184.41
2023-04-26T23:17:22.765Z,100172.16
2023-04-26T23:21:35.099Z,100174.53
2023-04-26T23:25:47.456Z,100160.22
2023-04-26T23:29:59.967Z,100164.94
2023-04-26T23:34:12.352Z,100166.84
2023-04-26T23:38:24.772Z,100159.75
2023-04-26T23:42:37.294Z,100159.88
2023-04-26T23:46:49.714Z,100154.47
2023-04-26T23:51:02.138Z,100156.63
2023-04-26T23:55:14.468Z,100161.97
2023-04-26T23:59:27.761Z,100170.19
